Time;durP1;ratioP1;P1;durP2;ratioP2;P2;SDS_P1;SDS_P2;PMS_P1;PMS_P2;Temp;Humidity;BMP_temperature;BMP_pressure;BME280_temperature;BME280_humidity;BME280_pressure;Samples;Min_cycle;Max_cycle;Signal;HPM_P1;HPM_P2
2020/12/23 00:00:45;;;;;;;6.75;2.22;;;9.60;99.90;;;;;;10441204;28;20033;-54
2020/12/23 00:06:06;;;;;;;13.88;4.20;;;9.60;99.90;;;;;;10428550;28;20052;-54
2020/12/23 00:11:27;;;;;;;8.27;3.92;;;9.60;99.90;;;;;;10436032;28;20040;-53
2020/12/23 00:16:48;;;;;;;7.70;3.10;;;9.60;99.90;;;;;;10430390;28;20057;-53
2020/12/23 00:22:09;;;;;;;10.85;4.15;;;9.60;99.90;;;;;;10432344;28;20507;-54
2020/12/23 00:27:30;;;;;;;13.40;4.60;;;9.60;99.90;;;;;;10442767;28;20060;-54
2020/12/23 00:32:51;;;;;;;12.20;4.70;;;9.60;99.90;;;;;;10432961;28;20036;-54
2020/12/23 00:38:12;;;;;;;13.40;5.03;;;9.60;99.90;;;;;;10436093;28;20177;-54
2020/12/23 00:43:33;;;;;;;11.93;3.33;;;9.60;99.90;;;;;;10418529;28;20040;-53
2020/12/23 00:48:54;;;;;;;15.88;4.47;;;9.70;99.90;;;;;;10437552;28;20041;-54
2020/12/23 00:54:15;;;;;;;12.32;5.75;;;9.70;99.90;;;;;;10428870;28;20033;-54
2020/12/23 00:59:36;;;;;;;15.80;3.95;;;9.70;99.90;;;;;;10437945;28;20044;-54
2020/12/23 01:04:57;;;;;;;9.02;4.38;;;9.80;99.90;;;;;;10432723;28;20094;-54
2020/12/23 01:10:18;;;;;;;7.13;3.10;;;9.80;99.90;;;;;;10441123;28;20049;-54
2020/12/23 01:15:39;;;;;;;13.63;4.63;;;9.80;99.90;;;;;;10418771;28;20390;-53
2020/12/23 01:21:00;;;;;;;14.43;3.15;;;9.80;99.90;;;;;;10436714;28;22061;-54
2020/12/23 01:26:21;;;;;;;16.98;3.95;;;9.70;99.90;;;;;;10428940;28;20037;-53
2020/12/23 01:31:42;;;;;;;12.38;4.15;;;9.80;99.90;;;;;;10447916;28;20041;-54
2020/12/23 01:37:03;;;;;;;9.35;3.83;;;9.80;99.90;;;;;;10421625;28;20056;-53
2020/12/23 01:42:24;;;;;;;11.70;4.35;;;9.80;99.90;;;;;;10432873;28;20773;-54
2020/12/23 01:47:45;;;;;;;9.40;3.55;;;9.90;99.90;;;;;;10438737;28;20394;-54
2020/12/23 01:53:07;;;;;;;10.85;2.95;;;9.90;99.90;;;;;;10440771;28;20094;-54
2020/12/23 01:58:27;;;;;;;6.95;2.80;;;9.90;99.90;;;;;;10435189;28;20039;-54
2020/12/23 02:03:49;;;;;;;10.93;5.18;;;9.90;99.90;;;;;;10417321;28;20037;-53
2020/12/23 02:09:11;;;;;;;12.15;4.45;;;9.90;99.90;;;;;;10427168;28;20033;-53
2020/12/23 02:14:32;;;;;;;10.95;4.22;;;9.90;99.90;;;;;;10444615;28;20045;-53
2020/12/23 02:19:53;;;;;;;13.70;3.72;;;9.90;99.90;;;;;;10438868;28;20041;-53
2020/12/23 02:25:15;;;;;;;12.00;5.78;;;9.90;99.90;;;;;;10430201;28;20037;-53
2020/12/23 02:30:36;;;;;;;10.75;4.00;;;9.90;99.90;;;;;;10431672;28;20098;-53
2020/12/23 02:35:57;;;;;;;12.82;3.63;;;9.90;99.90;;;;;;10442107;28;20045;-54
2020/12/23 02:41:18;;;;;;;9.57;4.15;;;9.90;99.90;;;;;;10445996;28;20036;-53
2020/12/23 02:46:39;;;;;;;12.90;4.75;;;9.80;99.90;;;;;;10444470;28;20033;-53
2020/12/23 02:52:00;;;;;;;14.27;4.57;;;9.90;99.90;;;;;;10435178;28;20041;-53
2020/12/23 02:57:21;;;;;;;16.60;4.75;;;9.90;99.90;;;;;;10442876;28;20041;-53
2020/12/23 03:02:42;;;;;;;29.05;4.93;;;9.90;99.90;;;;;;10445612;28;20083;-53
2020/12/23 03:08:02;;;;;;;17.45;5.07;;;9.90;99.90;;;;;;10449790;28;20480;-54
2020/12/23 03:13:23;;;;;;;15.88;6.45;;;9.90;99.90;;;;;;10446957;28;20068;-54
2020/12/23 03:18:44;;;;;;;21.60;4.85;;;9.90;99.90;;;;;;10425952;28;21499;-54
2020/12/23 03:24:06;;;;;;;15.75;5.38;;;9.90;99.90;;;;;;10439929;28;20481;-54
2020/12/23 03:29:27;;;;;;;23.98;7.20;;;10.00;99.90;;;;;;10440439;28;20105;-53
2020/12/23 03:34:48;;;;;;;23.50;7.60;;;10.00;99.90;;;;;;10442371;28;20033;-54
2020/12/23 03:40:09;;;;;;;23.50;7.18;;;10.00;99.90;;;;;;10434855;28;20386;-54
2020/12/23 03:45:30;;;;;;;18.83;5.32;;;10.10;99.90;;;;;;10446329;28;20177;-54
2020/12/23 03:50:51;;;;;;;22.83;7.90;;;10.10;99.90;;;;;;10442848;28;20037;-54
2020/12/23 03:56:12;;;;;;;17.65;6.05;;;10.20;99.90;;;;;;10443629;28;20042;-53
2020/12/23 04:01:33;;;;;;;20.75;6.88;;;10.20;99.90;;;;;;10441909;28;20112;-54
2020/12/23 04:06:54;;;;;;;20.90;7.72;;;10.30;99.90;;;;;;10423235;28;20119;-54
2020/12/23 04:12:15;;;;;;;18.90;7.53;;;10.30;99.90;;;;;;10439289;28;20132;-54
2020/12/23 04:17:37;;;;;;;17.35;6.28;;;10.40;99.90;;;;;;10432786;28;20040;-54
2020/12/23 04:22:59;;;;;;;20.17;7.20;;;10.40;99.90;;;;;;10438676;28;20120;-54
2020/12/23 04:28:19;;;;;;;18.40;7.07;;;10.40;99.90;;;;;;10411683;28;20037;-55
2020/12/23 04:33:40;;;;;;;22.40;7.30;;;10.50;99.90;;;;;;10432353;28;20127;-55
2020/12/23 04:39:02;;;;;;;17.02;6.78;;;10.50;99.90;;;;;;10440570;28;20099;-55
2020/12/23 04:44:24;;;;;;;15.90;5.40;;;10.50;99.90;;;;;;10443456;28;20033;-55
2020/12/23 04:49:46;;;;;;;22.25;7.35;;;10.50;99.90;;;;;;10440104;28;20041;-54
2020/12/23 04:55:07;;;;;;;22.00;7.05;;;10.50;99.90;;;;;;10441560;28;20060;-54
2020/12/23 05:00:28;;;;;;;14.05;4.35;;;10.50;99.90;;;;;;10439528;28;20087;-54
2020/12/23 05:05:49;;;;;;;15.13;4.57;;;10.50;99.90;;;;;;10444058;28;20562;-53
2020/12/23 05:11:12;;;;;;;15.27;5.15;;;10.60;99.90;;;;;;10435264;28;20505;-54
2020/12/23 05:16:33;;;;;;;18.98;6.85;;;10.60;99.90;;;;;;10431023;28;20091;-54
2020/12/23 05:21:58;;;;;;;15.20;5.10;;;10.70;99.90;;;;;;10427705;28;20040;-54
2020/12/23 05:27:22;;;;;;;16.42;4.82;;;10.70;99.90;;;;;;10437480;28;20432;-53
2020/12/23 05:32:45;;;;;;;11.07;4.90;;;10.70;99.90;;;;;;10429172;28;20045;-53
2020/12/23 05:38:06;;;;;;;14.45;5.35;;;10.80;99.90;;;;;;10443442;28;20072;-54
2020/12/23 05:43:28;;;;;;;12.98;5.10;;;10.80;99.90;;;;;;10445000;28;20045;-54
2020/12/23 05:48:49;;;;;;;14.02;5.03;;;10.80;99.90;;;;;;10442345;28;20059;-53
2020/12/23 05:54:11;;;;;;;21.33;5.93;;;11.00;99.90;;;;;;10442478;28;20189;-54
2020/12/23 05:59:32;;;;;;;13.05;5.50;;;10.90;99.90;;;;;;10445799;28;20041;-54
2020/12/23 06:04:54;;;;;;;13.02;4.88;;;11.00;99.90;;;;;;10423384;28;20028;-54
2020/12/23 06:10:21;;;;;;;15.00;5.03;;;11.00;99.90;;;;;;10444026;28;20040;-54
2020/12/23 06:15:42;;;;;;;15.48;5.68;;;11.00;99.90;;;;;;10438353;28;20040;-54
2020/12/23 06:21:08;;;;;;;9.50;4.20;;;11.00;99.90;;;;;;10440687;28;20033;-54
2020/12/23 06:26:30;;;;;;;7.97;4.40;;;11.00;99.90;;;;;;10432628;28;20130;-54
2020/12/23 06:31:55;;;;;;;13.60;4.43;;;11.00;99.90;;;;;;10442736;28;20570;-53
2020/12/23 06:37:20;;;;;;;10.70;5.07;;;11.00;99.90;;;;;;10451755;28;20032;-54
2020/12/23 06:42:48;;;;;;;12.27;3.63;;;11.10;99.90;;;;;;10447183;28;20094;-53
2020/12/23 06:48:17;;;;;;;9.02;2.78;;;11.10;99.90;;;;;;10449976;28;20047;-54
2020/12/23 06:53:38;;;;;;;8.93;3.50;;;11.00;99.90;;;;;;10450659;28;20071;-54
2020/12/23 06:58:59;;;;;;;9.00;4.20;;;11.10;99.90;;;;;;10446286;28;20028;-54
2020/12/23 07:04:20;;;;;;;8.98;3.30;;;11.20;99.90;;;;;;10450017;28;20040;-54
2020/12/23 07:09:51;;;;;;;6.03;2.92;;;11.20;99.90;;;;;;10449187;28;20029;-53
2020/12/23 07:15:18;;;;;;;10.90;3.50;;;11.20;99.90;;;;;;10452265;28;20060;-54
2020/12/23 07:20:45;;;;;;;8.13;2.88;;;11.30;99.90;;;;;;10449523;28;20044;-53
2020/12/23 07:26:07;;;;;;;11.18;2.90;;;11.30;99.90;;;;;;10450202;28;20037;-54
2020/12/23 07:31:28;;;;;;;8.57;2.97;;;11.40;99.90;;;;;;10446367;28;20037;-54
2020/12/23 07:36:56;;;;;;;6.22;2.42;;;11.40;99.90;;;;;;10445367;28;20556;-53
2020/12/23 07:42:19;;;;;;;7.80;3.47;;;11.40;99.90;;;;;;10443583;28;20114;-54
2020/12/23 07:47:40;;;;;;;8.13;3.08;;;11.40;99.90;;;;;;10444445;28;20110;-54
2020/12/23 07:53:12;;;;;;;7.50;1.45;;;11.40;99.90;;;;;;10449271;28;20407;-54
2020/12/23 07:58:34;;;;;;;6.75;2.67;;;11.50;99.90;;;;;;10443176;28;20500;-53
2020/12/23 08:03:55;;;;;;;5.85;2.60;;;11.50;99.90;;;;;;10448982;28;20040;-53
2020/12/23 08:09:16;;;;;;;5.22;1.63;;;11.50;99.90;;;;;;10442621;28;20044;-53
2020/12/23 08:14:40;;;;;;;5.70;1.92;;;11.60;99.90;;;;;;10444856;28;20037;-54
2020/12/23 08:20:03;;;;;;;4.32;1.50;;;11.60;99.90;;;;;;10442842;28;20040;-54
2020/12/23 08:25:28;;;;;;;6.00;2.10;;;11.60;99.90;;;;;;10447005;28;20044;-53
2020/12/23 08:30:49;;;;;;;5.82;1.75;;;11.70;99.90;;;;;;10450784;28;20036;-54
2020/12/23 08:36:10;;;;;;;3.53;0.93;;;11.60;99.90;;;;;;10435407;28;20049;-54
2020/12/23 08:41:31;;;;;;;2.53;1.00;;;11.60;99.90;;;;;;10445468;28;20029;-54
2020/12/23 08:46:52;;;;;;;5.00;1.50;;;11.60;99.90;;;;;;10441163;28;20129;-54
2020/12/23 08:52:18;;;;;;;6.93;2.30;;;11.60;99.90;;;;;;10444752;28;20706;-53
2020/12/23 08:57:39;;;;;;;3.95;1.25;;;11.70;99.90;;;;;;10441592;28;20037;-54
2020/12/23 09:03:01;;;;;;;2.63;1.15;;;11.70;99.90;;;;;;10443554;28;20047;-54
2020/12/23 09:08:27;;;;;;;4.72;1.58;;;11.70;99.90;;;;;;10441767;28;20044;-54
2020/12/23 09:13:48;;;;;;;6.68;2.20;;;11.70;99.90;;;;;;10432650;28;20037;-54
2020/12/23 09:19:08;;;;;;;4.35;1.70;;;11.70;99.90;;;;;;10437532;28;20037;-55
2020/12/23 09:24:29;;;;;;;4.47;1.50;;;11.70;99.90;;;;;;10441170;28;20485;-55
2020/12/23 09:29:53;;;;;;;5.43;2.17;;;11.70;99.90;;;;;;10443237;28;20127;-55
2020/12/23 09:35:20;;;;;;;8.02;2.35;;;11.70;99.90;;;;;;10445620;28;20062;-55
2020/12/23 09:40:43;;;;;;;7.70;2.30;;;11.70;99.90;;;;;;10446559;28;20037;-55
2020/12/23 09:46:08;;;;;;;5.95;2.80;;;11.70;99.90;;;;;;10455826;28;20467;-54
2020/12/23 09:51:29;;;;;;;4.78;1.70;;;11.70;99.90;;;;;;10450338;28;20043;-54
2020/12/23 09:56:53;;;;;;;4.68;2.17;;;11.70;99.90;;;;;;10454799;28;20065;-54
2020/12/23 10:02:14;;;;;;;4.10;2.10;;;11.70;99.90;;;;;;10448835;28;20091;-54
2020/12/23 10:07:35;;;;;;;3.72;1.35;;;11.60;99.90;;;;;;10449646;28;20112;-55
2020/12/23 10:12:56;;;;;;;3.28;1.38;;;11.60;99.90;;;;;;10440016;28;20032;-55
2020/12/23 10:18:17;;;;;;;5.53;2.47;;;11.50;99.90;;;;;;10453672;28;20078;-54
2020/12/23 10:23:38;;;;;;;4.93;1.92;;;11.60;99.90;;;;;;10443629;28;20040;-54
2020/12/23 10:28:59;;;;;;;5.20;1.70;;;11.50;99.90;;;;;;10447505;28;20090;-54
2020/12/23 10:34:20;;;;;;;4.38;1.73;;;11.60;99.90;;;;;;10441297;28;20045;-54
2020/12/23 10:39:41;;;;;;;4.68;1.60;;;11.60;99.90;;;;;;10446199;28;20048;-53
2020/12/23 10:45:03;;;;;;;4.88;1.73;;;11.60;99.90;;;;;;10447315;28;20120;-52
2020/12/23 10:50:24;;;;;;;3.88;1.75;;;11.50;99.90;;;;;;10434499;28;20090;-51
2020/12/23 10:55:45;;;;;;;3.72;1.90;;;11.50;99.90;;;;;;10453279;28;20040;-52
2020/12/23 11:01:06;;;;;;;4.43;1.80;;;11.50;99.90;;;;;;10451443;28;20114;-51
2020/12/23 11:06:27;;;;;;;5.82;1.73;;;11.50;99.90;;;;;;10449151;28;20396;-51
2020/12/23 11:11:55;;;;;;;8.20;1.58;;;11.50;99.90;;;;;;10445757;28;20991;-51
2020/12/23 11:17:17;;;;;;;6.78;2.08;;;11.50;99.90;;;;;;10427476;28;20401;-52
2020/12/23 11:22:38;;;;;;;3.20;1.17;;;11.50;99.90;;;;;;10447426;28;20051;-52
2020/12/23 11:27:59;;;;;;;5.43;1.70;;;11.50;99.90;;;;;;10438185;28;20099;-52
2020/12/23 11:33:20;;;;;;;4.13;1.63;;;11.50;99.90;;;;;;10438570;28;20267;-51
2020/12/23 11:38:41;;;;;;;7.80;1.67;;;11.50;99.90;;;;;;10444569;28;20048;-52
2020/12/23 11:44:02;;;;;;;4.07;1.00;;;11.50;99.90;;;;;;10446925;28;20040;-52
2020/12/23 11:49:23;;;;;;;2.58;0.73;;;11.50;99.90;;;;;;10445373;28;20049;-53
2020/12/23 11:54:44;;;;;;;3.40;1.00;;;11.50;99.90;;;;;;10441659;28;20796;-53
2020/12/23 12:00:06;;;;;;;2.17;0.88;;;11.60;99.90;;;;;;10438074;28;20055;-53
2020/12/23 12:05:27;;;;;;;1.90;0.70;;;11.50;99.90;;;;;;10428991;28;20392;-52
2020/12/23 12:10:48;;;;;;;1.55;0.73;;;11.50;99.90;;;;;;10447385;28;20119;-52
2020/12/23 12:16:09;;;;;;;1.67;0.45;;;11.50;99.90;;;;;;10447195;28;20047;-52
2020/12/23 12:21:30;;;;;;;0.65;0.30;;;11.50;99.90;;;;;;10449023;28;20037;-51
2020/12/23 12:26:52;;;;;;;2.90;0.70;;;11.60;99.90;;;;;;10449973;28;20025;-50
2020/12/23 12:32:13;;;;;;;1.52;0.43;;;11.50;99.90;;;;;;10443388;28;20033;-51
2020/12/23 12:37:33;;;;;;;2.95;1.17;;;11.60;99.90;;;;;;10438954;28;20086;-51
2020/12/23 12:42:55;;;;;;;3.28;1.33;;;11.60;99.90;;;;;;10444906;28;20119;-52
2020/12/23 12:48:18;;;;;;;5.70;1.75;;;11.70;99.90;;;;;;10444578;28;20036;-52
2020/12/23 12:53:39;;;;;;;4.03;1.60;;;11.70;99.90;;;;;;10442187;28;20044;-53
2020/12/23 12:59:00;;;;;;;2.97;1.48;;;11.80;99.90;;;;;;10443361;28;20045;-53
2020/12/23 13:04:21;;;;;;;3.10;1.27;;;11.90;99.90;;;;;;10441990;28;20041;-53
2020/12/23 13:09:42;;;;;;;4.75;2.42;;;11.90;99.90;;;;;;10442593;28;20039;-54
2020/12/23 13:15:03;;;;;;;3.83;1.17;;;12.00;99.90;;;;;;10442102;28;20033;-54
2020/12/23 13:20:24;;;;;;;2.70;1.33;;;12.20;99.90;;;;;;10441676;28;20033;-54
2020/12/23 13:25:45;;;;;;;2.00;0.80;;;12.20;99.90;;;;;;10414612;28;20102;-54
2020/12/23 13:31:07;;;;;;;2.83;1.23;;;12.20;99.90;;;;;;10420253;28;20128;-54
2020/12/23 13:36:28;;;;;;;3.28;1.77;;;12.20;99.90;;;;;;10438170;28;20045;-54
2020/12/23 13:41:53;;;;;;;1.80;0.75;;;12.10;99.90;;;;;;10434605;28;20049;-54
2020/12/23 13:47:15;;;;;;;2.38;0.70;;;12.20;99.90;;;;;;10438323;28;20037;-54
2020/12/23 13:52:36;;;;;;;1.02;0.40;;;12.10;99.90;;;;;;10437643;28;20028;-54
2020/12/23 13:58:05;;;;;;;2.53;0.75;;;12.20;99.90;;;;;;10441909;28;20048;-54
2020/12/23 14:03:27;;;;;;;2.20;0.65;;;12.10;99.90;;;;;;10452082;28;20389;-54
2020/12/23 14:08:49;;;;;;;2.42;0.68;;;12.10;99.90;;;;;;10443357;28;20043;-55
2020/12/23 14:14:10;;;;;;;1.30;0.82;;;12.00;99.90;;;;;;10430412;28;20033;-54
2020/12/23 14:19:31;;;;;;;1.05;0.73;;;12.00;99.90;;;;;;10438584;28;20079;-54
2020/12/23 14:24:52;;;;;;;1.33;0.70;;;12.10;99.90;;;;;;10448807;28;20064;-54
2020/12/23 14:30:13;;;;;;;3.17;1.20;;;12.10;99.90;;;;;;10454000;28;20035;-54
2020/12/23 14:35:34;;;;;;;2.15;0.85;;;12.10;99.90;;;;;;10445358;28;20424;-54
2020/12/23 14:40:55;;;;;;;2.95;1.15;;;12.10;99.90;;;;;;10449436;28;20528;-54
2020/12/23 14:46:16;;;;;;;3.53;1.00;;;12.10;99.90;;;;;;10444845;28;20099;-55
2020/12/23 14:51:37;;;;;;;2.38;0.82;;;12.00;99.90;;;;;;10455081;28;20274;-55
2020/12/23 14:57:01;;;;;;;1.83;0.98;;;11.90;99.90;;;;;;10450572;28;20356;-55
2020/12/23 15:02:22;;;;;;;2.33;0.93;;;11.90;99.90;;;;;;10444498;28;20057;-55
2020/12/23 15:07:43;;;;;;;3.72;1.95;;;11.80;99.90;;;;;;10448162;28;20041;-55
2020/12/23 15:13:04;;;;;;;4.35;1.60;;;11.80;99.90;;;;;;10453748;28;20475;-55
2020/12/23 15:18:26;;;;;;;4.07;2.08;;;11.80;99.90;;;;;;10448115;28;20045;-55
2020/12/23 15:23:47;;;;;;;2.75;1.13;;;11.80;99.90;;;;;;10446443;28;20066;-55
2020/12/23 15:29:08;;;;;;;4.25;2.03;;;11.80;99.90;;;;;;10434387;28;20396;-55
2020/12/23 15:34:29;;;;;;;2.53;1.08;;;11.80;99.90;;;;;;10445498;28;20489;-55
2020/12/23 15:39:50;;;;;;;3.22;1.20;;;11.70;99.90;;;;;;10449484;28;20099;-55
2020/12/23 15:45:11;;;;;;;2.25;1.30;;;11.80;99.90;;;;;;10443715;28;20128;-55
2020/12/23 15:50:32;;;;;;;3.65;2.33;;;11.70;99.90;;;;;;10448353;28;20040;-55
2020/12/23 15:55:53;;;;;;;3.20;0.90;;;11.70;99.90;;;;;;10447928;28;20036;-55
2020/12/23 16:01:14;;;;;;;3.42;1.08;;;11.70;99.90;;;;;;10443522;28;20045;-55
2020/12/23 16:06:35;;;;;;;4.13;1.38;;;11.70;99.90;;;;;;10445153;28;20033;-55
2020/12/23 16:11:56;;;;;;;3.35;1.27;;;11.70;99.90;;;;;;10445123;28;20040;-55
2020/12/23 16:17:17;;;;;;;4.45;1.45;;;11.70;99.90;;;;;;10440258;28;20068;-55
2020/12/23 16:22:38;;;;;;;4.07;1.65;;;11.80;99.90;;;;;;10441551;28;20036;-55
2020/12/23 16:28:00;;;;;;;2.65;0.95;;;11.70;99.90;;;;;;10439402;28;20024;-55
2020/12/23 16:33:21;;;;;;;3.25;1.70;;;11.70;99.90;;;;;;10429651;28;20468;-55
2020/12/23 16:38:42;;;;;;;4.53;1.65;;;11.80;99.90;;;;;;10448014;28;20048;-55
2020/12/23 16:44:03;;;;;;;4.80;1.77;;;11.90;99.90;;;;;;10444746;28;20033;-55
2020/12/23 16:49:24;;;;;;;6.40;2.38;;;11.80;99.90;;;;;;10440087;28;20033;-55
2020/12/23 16:54:45;;;;;;;3.35;1.60;;;11.80;99.90;;;;;;10435523;28;20040;-55
2020/12/23 17:00:06;;;;;;;3.65;1.90;;;11.90;99.90;;;;;;10434723;28;20554;-55
2020/12/23 17:05:27;;;;;;;5.25;2.22;;;11.90;99.90;;;;;;10445332;28;20055;-55
2020/12/23 17:10:48;;;;;;;4.88;1.60;;;12.00;99.90;;;;;;10440635;28;20041;-55
2020/12/23 17:16:13;;;;;;;4.10;1.75;;;12.00;99.90;;;;;;10435665;28;20041;-55
2020/12/23 17:21:34;;;;;;;4.40;1.90;;;12.00;99.90;;;;;;10438181;28;20033;-55
2020/12/23 17:26:56;;;;;;;4.70;2.08;;;12.00;99.90;;;;;;10425444;28;20032;-55
2020/12/23 17:32:17;;;;;;;3.13;1.35;;;12.00;99.90;;;;;;10438914;28;20573;-55
2020/12/23 17:37:41;;;;;;;6.30;1.67;;;12.00;99.90;;;;;;10409963;28;20199;-55
2020/12/23 17:43:02;;;;;;;5.25;2.63;;;12.00;99.90;;;;;;10394561;28;20343;-55
2020/12/23 17:48:23;;;;;;;3.70;1.20;;;11.90;99.90;;;;;;10403082;28;20037;-54
2020/12/23 17:53:44;;;;;;;3.95;1.90;;;12.00;99.90;;;;;;10403642;28;20042;-55
2020/12/23 17:59:09;;;;;;;4.00;1.55;;;12.10;99.90;;;;;;10403795;28;20190;-55
2020/12/23 18:04:31;;;;;;;4.45;1.88;;;12.10;99.90;;;;;;10404392;28;20470;-55
2020/12/23 18:09:52;;;;;;;3.75;1.88;;;12.10;99.90;;;;;;10406505;28;20761;-54
2020/12/23 18:15:13;;;;;;;3.17;1.88;;;12.10;99.90;;;;;;10402877;28;20050;-54
2020/12/23 18:20:34;;;;;;;4.95;2.03;;;12.10;99.90;;;;;;10397236;28;20049;-54
2020/12/23 18:25:55;;;;;;;2.45;1.13;;;12.30;99.90;;;;;;10389619;28;20065;-55
2020/12/23 18:31:16;;;;;;;2.88;1.38;;;12.20;99.90;;;;;;10404544;28;20037;-55
2020/12/23 18:36:37;;;;;;;3.10;1.45;;;12.20;99.90;;;;;;10420531;28;20709;-55
2020/12/23 18:41:59;;;;;;;4.43;1.48;;;12.20;99.90;;;;;;10443715;28;20091;-55
2020/12/23 18:47:20;;;;;;;2.75;1.50;;;12.20;99.90;;;;;;10443253;28;20059;-55
2020/12/23 18:52:50;;;;;;;4.65;1.63;;;12.20;99.90;;;;;;10444796;28;20421;-54
2020/12/23 18:58:11;;;;;;;0.90;0.30;;;12.10;99.90;;;;;;10442122;28;20065;-54
2020/12/23 19:03:32;;;;;;;0.95;0.25;;;11.90;99.90;;;;;;10446026;28;20039;-54
2020/12/23 19:08:54;;;;;;;0.43;0.10;;;11.60;99.90;;;;;;10440921;28;20036;-55
2020/12/23 19:14:15;;;;;;;1.75;0.15;;;11.30;99.90;;;;;;10439966;28;20047;-55
2020/12/23 19:19:36;;;;;;;0.22;0.10;;;11.10;99.90;;;;;;10439399;28;20113;-56
2020/12/23 19:24:57;;;;;;;0.80;0.20;;;10.90;99.90;;;;;;10428230;28;20416;-55
2020/12/23 19:30:18;;;;;;;1.20;0.45;;;10.90;99.90;;;;;;10439657;28;20040;-55
2020/12/23 19:35:39;;;;;;;2.17;1.10;;;10.70;99.90;;;;;;10438482;28;20060;-55
2020/12/23 19:41:00;;;;;;;2.38;0.17;;;10.60;99.90;;;;;;10436299;28;20578;-55
2020/12/23 19:46:21;;;;;;;3.70;0.38;;;10.60;99.90;;;;;;10440433;28;20076;-55
2020/12/23 19:51:42;;;;;;;1.67;0.28;;;10.80;99.90;;;;;;10438057;28;20072;-55
2020/12/23 19:57:03;;;;;;;1.42;0.80;;;10.70;99.90;;;;;;10439382;28;20036;-55
2020/12/23 20:02:24;;;;;;;2.80;0.52;;;10.80;99.90;;;;;;10436265;28;20400;-55
2020/12/23 20:07:45;;;;;;;1.40;0.60;;;10.70;99.90;;;;;;10433283;28;21350;-55
2020/12/23 20:13:06;;;;;;;1.42;0.52;;;10.70;99.90;;;;;;10438503;28;20025;-56
2020/12/23 20:18:27;;;;;;;2.45;0.68;;;10.60;99.90;;;;;;10438512;28;20049;-54
2020/12/23 20:23:48;;;;;;;0.98;0.40;;;10.60;99.90;;;;;;10436977;28;20037;-54
2020/12/23 20:29:10;;;;;;;0.82;0.40;;;10.50;99.90;;;;;;10438812;28;20167;-54
2020/12/23 20:34:31;;;;;;;4.15;0.63;;;10.50;99.90;;;;;;10437954;28;20056;-53
2020/12/23 20:39:52;;;;;;;1.15;0.47;;;10.50;99.90;;;;;;10441562;28;20044;-54
2020/12/23 20:45:15;;;;;;;0.70;0.35;;;10.40;99.90;;;;;;10431681;28;20036;-54
2020/12/23 20:50:37;;;;;;;1.17;0.70;;;10.50;99.90;;;;;;10425961;28;20491;-54
2020/12/23 20:55:58;;;;;;;2.63;0.80;;;10.40;99.90;;;;;;10441035;28;20040;-54
2020/12/23 21:01:21;;;;;;;2.00;0.52;;;10.40;99.90;;;;;;10442722;28;20068;-53
2020/12/23 21:06:42;;;;;;;0.85;0.40;;;10.40;99.90;;;;;;10441139;28;20092;-53
2020/12/23 21:12:03;;;;;;;1.00;0.32;;;10.50;99.90;;;;;;10447479;28;20426;-54
2020/12/23 21:17:25;;;;;;;1.17;0.40;;;10.40;99.90;;;;;;10443548;28;20091;-54
2020/12/23 21:22:46;;;;;;;2.50;0.50;;;10.50;99.90;;;;;;10445246;28;20116;-53
2020/12/23 21:28:07;;;;;;;2.75;0.60;;;10.50;99.90;;;;;;10442286;28;20056;-53
2020/12/23 21:33:28;;;;;;;4.07;0.63;;;10.40;99.90;;;;;;10447244;28;20036;-54
2020/12/23 21:38:49;;;;;;;1.35;0.45;;;10.40;99.90;;;;;;10415984;28;21157;-54
2020/12/23 21:44:11;;;;;;;0.82;0.32;;;10.40;99.90;;;;;;10416429;28;20076;-54
2020/12/23 21:49:32;;;;;;;0.80;0.28;;;10.30;99.90;;;;;;10414515;28;20052;-54
2020/12/23 21:54:53;;;;;;;0.75;0.28;;;10.30;99.90;;;;;;10413269;28;20030;-54
2020/12/23 22:00:14;;;;;;;22.27;2.60;;;10.40;99.90;;;;;;10407660;28;20083;-54
2020/12/23 22:05:35;;;;;;;2.33;0.70;;;10.40;99.90;;;;;;10412241;28;20060;-54
2020/12/23 22:10:56;;;;;;;4.07;1.23;;;10.30;99.90;;;;;;10412559;28;20470;-54
2020/12/23 22:16:18;;;;;;;3.05;0.28;;;10.20;99.90;;;;;;10407001;28;20022;-53
2020/12/23 22:21:38;;;;;;;0.70;0.40;;;10.20;99.90;;;;;;10405969;28;20059;-54
2020/12/23 22:27:00;;;;;;;2.50;0.52;;;10.00;99.90;;;;;;10411253;28;20040;-54
2020/12/23 22:32:21;;;;;;;2.20;0.30;;;9.80;99.90;;;;;;10406605;28;20037;-55
2020/12/23 22:37:42;;;;;;;0.77;0.28;;;9.70;99.90;;;;;;10430351;28;20165;-54
2020/12/23 22:43:03;;;;;;;0.80;0.20;;;9.50;99.90;;;;;;10442664;28;20040;-54
2020/12/23 22:48:24;;;;;;;1.55;0.43;;;9.60;99.90;;;;;;10446782;28;20737;-54
2020/12/23 22:53:46;;;;;;;0.95;0.28;;;9.60;99.90;;;;;;10445702;28;20041;-54
2020/12/23 22:59:06;;;;;;;1.05;0.35;;;9.50;99.90;;;;;;10446326;28;20036;-54
2020/12/23 23:04:27;;;;;;;3.33;0.50;;;9.40;99.90;;;;;;10447057;28;20999;-54
2020/12/23 23:09:49;;;;;;;2.15;0.50;;;9.40;99.90;;;;;;10431583;28;20036;-54
2020/12/23 23:15:11;;;;;;;3.30;0.38;;;9.40;99.90;;;;;;10447657;28;20067;-54
2020/12/23 23:20:32;;;;;;;0.90;0.20;;;9.50;99.90;;;;;;10442068;28;20045;-55
2020/12/23 23:25:53;;;;;;;1.08;0.88;;;9.60;99.90;;;;;;10449438;28;20064;-54
2020/12/23 23:31:14;;;;;;;0.20;0.05;;;9.50;99.90;;;;;;10432975;28;20127;-54
2020/12/23 23:36:35;;;;;;;1.77;0.50;;;9.40;99.90;;;;;;10443269;28;20063;-55
2020/12/23 23:41:56;;;;;;;2.63;0.50;;;9.40;99.90;;;;;;10440601;28;20122;-55
2020/12/23 23:47:17;;;;;;;0.90;0.30;;;9.40;99.90;;;;;;10444104;28;20033;-55
2020/12/23 23:52:38;;;;;;;1.25;0.52;;;9.40;99.90;;;;;;10448380;28;20039;-54
2020/12/23 23:57:59;;;;;;;3.40;1.40;;;9.30;99.90;;;;;;10445668;28;20128;-54
